createdAt,value
2023-12-11T00:02:17.297Z,97610.84
2023-12-11T00:04:45.824Z,97601.21
2023-12-11T00:07:14.152Z,97597.73
2023-12-11T00:09:43.695Z,97596.02
2023-12-11T00:12:11.838Z,97600.63
2023-12-11T00:14:40.334Z,97608.47
2023-12-11T00:17:08.496Z,97605.95
2023-12-11T00:19:36.665Z,97609.96
2023-12-11T00:22:05.152Z,97608.48
2023-12-11T00:24:33.821Z,97608.58
2023-12-11T00:27:02.042Z,97608.98
2023-12-11T00:29:30.182Z,97611.21
2023-12-11T00:32:00.891Z,97624.52
2023-12-11T00:34:29.350Z,97621.40
2023-12-11T00:36:57.652Z,97627.42
2023-12-11T00:39:26.437Z,97633.60
2023-12-11T00:41:54.891Z,97636.98
2023-12-11T00:44:22.937Z,97635.27
2023-12-11T00:46:51.214Z,97640.54
2023-12-11T00:49:19.513Z,97640.52
2023-12-11T00:51:54.183Z,97641.74
2023-12-11T00:54:22.458Z,97646.15
2023-12-11T00:56:50.788Z,97649.33
2023-12-11T00:59:19.020Z,97639.46
2023-12-11T01:01:47.170Z,97633.83
2023-12-11T01:04:15.639Z,97633.17
2023-12-11T01:06:43.908Z,97636.79
2023-12-11T01:09:14.206Z,97639.73
2023-12-11T01:11:42.371Z,97643.02
2023-12-11T01:14:10.672Z,97643.39
2023-12-11T01:16:38.839Z,97641.46
2023-12-11T01:19:08.574Z,97637.77
2023-12-11T01:21:36.912Z,97636.52
2023-12-11T01:24:05.447Z,97636.08
2023-12-11T01:26:33.657Z,97629.06
2023-12-11T01:29:01.829Z,97630.14
2023-12-11T01:31:30.942Z,97617.35
2023-12-11T01:33:59.059Z,97609.49
2023-12-11T01:36:27.562Z,97598.70
2023-12-11T01:38:55.644Z,97597.98
2023-12-11T01:41:23.815Z,97609.96
2023-12-11T01:43:55.703Z,97600.59
2023-12-11T01:46:25.907Z,97594.52
2023-12-11T01:48:55.095Z,97584.79
2023-12-11T01:51:24.331Z,97578.91
2023-12-11T01:53:53.233Z,97581.03
2023-12-11T01:56:22.378Z,97582.73
2023-12-11T01:58:51.925Z,97574.98
2023-12-11T02:01:25.870Z,97569.91
2023-12-11T02:03:54.325Z,97580.54
2023-12-11T02:06:22.890Z,97568.92
2023-12-11T02:08:54.970Z,97557.27
2023-12-11T02:11:23.241Z,97553.30
2023-12-11T02:13:51.463Z,97550.70
2023-12-11T02:16:22.722Z,97547.13
2023-12-11T02:18:52.192Z,97546.78
2023-12-11T02:21:20.669Z,97544.89
2023-12-11T02:23:55.384Z,97544.20
2023-12-11T02:26:23.753Z,97550.15
2023-12-11T02:28:52.383Z,97550.16
2023-12-11T02:31:20.716Z,97548.46
2023-12-11T02:33:49.109Z,97555.44
2023-12-11T02:36:17.430Z,97560.41
2023-12-11T02:38:45.802Z,97556.55
2023-12-11T02:41:14.157Z,97562.69
2023-12-11T02:43:42.983Z,97573.59
2023-12-11T02:46:11.438Z,97570.45
2023-12-11T02:48:41.164Z,97564.83
2023-12-11T02:51:09.649Z,97560.39
2023-12-11T02:53:37.924Z,97567.05
2023-12-11T02:56:06.408Z,97565.63
2023-12-11T02:58:34.640Z,97568.77
2023-12-11T03:01:02.975Z,97567.38
2023-12-11T03:03:31.997Z,97560.52
2023-12-11T03:06:01.824Z,97562.20
2023-12-11T03:08:30.214Z,97570.55
2023-12-11T03:10:59.100Z,97575.88
2023-12-11T03:13:27.272Z,97582.64
2023-12-11T03:15:55.980Z,97583.29
2023-12-11T03:18:24.259Z,97586.07
2023-12-11T03:20:52.486Z,97582.08
2023-12-11T03:23:20.625Z,97579.31
2023-12-11T03:25:48.887Z,97574.21
2023-12-11T03:28:17.115Z,97577.61
2023-12-11T03:30:45.924Z,97580.39
2023-12-11T03:33:14.634Z,97585.32
2023-12-11T03:35:42.982Z,97587.46
2023-12-11T03:38:11.125Z,97591.65
2023-12-11T03:40:39.356Z,97588.23
2023-12-11T03:43:07.715Z,97585.42
2023-12-11T03:45:36.957Z,97588.46
2023-12-11T03:48:06.121Z,97588.73
2023-12-11T03:50:34.269Z,97589.36
2023-12-11T03:53:02.403Z,97594.42
2023-12-11T03:55:30.628Z,97594.48
2023-12-11T03:57:59.248Z,97601.27
2023-12-11T04:00:27.529Z,97605.79
2023-12-11T04:02:55.693Z,97600.48
2023-12-11T04:05:25.346Z,97589.45
2023-12-11T04:07:54.705Z,97590.20
2023-12-11T04:10:23.837Z,97595.30
2023-12-11T04:12:52.545Z,97593.42
2023-12-11T04:15:20.641Z,97592.63
2023-12-11T04:17:49.523Z,97593.49
2023-12-11T04:20:17.819Z,97594.88
2023-12-11T04:22:45.948Z,97592.98
2023-12-11T04:25:14.296Z,97597.36
2023-12-11T04:27:42.526Z,97600.00
2023-12-11T04:30:11.178Z,97603.86
2023-12-11T04:32:39.898Z,97605.87
2023-12-11T04:35:08.492Z,97605.38
2023-12-11T04:37:37.731Z,97601.72
2023-12-11T04:40:06.748Z,97592.44
2023-12-11T04:42:36.360Z,97592.30
2023-12-11T04:45:07.275Z,97600.82
2023-12-11T04:47:37.611Z,97606.53
2023-12-11T04:50:06.475Z,97606.70
2023-12-11T04:52:34.791Z,97603.77
2023-12-11T04:55:02.993Z,97607.52
2023-12-11T04:57:34.286Z,97607.82
2023-12-11T05:00:02.605Z,97608.38
2023-12-11T05:02:30.810Z,97599.63
2023-12-11T05:05:00.391Z,97595.96
2023-12-11T05:07:28.999Z,97590.77
2023-12-11T05:09:57.409Z,97593.95
2023-12-11T05:12:25.489Z,97595.77
2023-12-11T05:14:54.052Z,97589.70
2023-12-11T05:17:23.463Z,97591.19
2023-12-11T05:19:54.454Z,97591.63
2023-12-11T05:22:23.058Z,97593.35
2023-12-11T05:24:53.557Z,97591.68
2023-12-11T05:27:22.615Z,97588.48
2023-12-11T05:29:50.786Z,97581.98
2023-12-11T05:32:18.973Z,97587.65
2023-12-11T05:34:47.503Z,97594.08
2023-12-11T05:37:15.750Z,97598.74
2023-12-11T05:39:53.973Z,97604.46
2023-12-11T05:42:26.314Z,97609.73
2023-12-11T05:44:57.175Z,97612.58
2023-12-11T05:47:25.680Z,97614.36
2023-12-11T05:49:54.695Z,97616.66
2023-12-11T05:52:23.095Z,97624.23
2023-12-11T05:54:51.620Z,97624.46
2023-12-11T05:57:20.013Z,97621.52
2023-12-11T05:59:48.713Z,97613.27
2023-12-11T06:02:17.013Z,97609.91
2023-12-11T06:04:45.269Z,97613.33
2023-12-11T06:07:13.674Z,97611.90
2023-12-11T06:09:42.792Z,97611.55
2023-12-11T06:12:11.756Z,97611.41
2023-12-11T06:14:49.844Z,97614.03
2023-12-11T06:17:18.752Z,97615.06
2023-12-11T06:19:49.803Z,97619.40
2023-12-11T06:22:18.006Z,97618.29
2023-12-11T06:24:47.285Z,97624.88
2023-12-11T06:27:15.824Z,97627.88
2023-12-11T06:29:44.679Z,97636.52
2023-12-11T06:32:13.227Z,97635.47
2023-12-11T06:34:42.939Z,97637.83
2023-12-11T06:37:11.446Z,97641.79
2023-12-11T06:39:39.943Z,97645.54
2023-12-11T06:42:09.416Z,97652.70
2023-12-11T06:44:37.707Z,97657.88
2023-12-11T06:47:06.057Z,97655.16
2023-12-11T06:49:35.523Z,97658.94
2023-12-11T06:52:07.481Z,97667.55
2023-12-11T06:54:36.324Z,97675.68
2023-12-11T06:57:05.005Z,97675.15
2023-12-11T06:59:38.287Z,97672.55
2023-12-11T07:02:07.773Z,97673.80
2023-12-11T07:04:36.863Z,97674.91
2023-12-11T07:07:05.797Z,97670.59
2023-12-11T07:09:34.494Z,97672.29
2023-12-11T07:12:03.007Z,97678.39
2023-12-11T07:14:33.408Z,97675.07
2023-12-11T07:17:01.932Z,97675.11
2023-12-11T07:19:30.884Z,97668.76
2023-12-11T07:21:59.882Z,97658.05
2023-12-11T07:24:28.564Z,97652.11
2023-12-11T07:26:56.817Z,97648.09
2023-12-11T07:29:25.158Z,97638.31
2023-12-11T07:31:54.223Z,97633.21
2023-12-11T07:34:24.336Z,97635.79
2023-12-11T07:36:54.770Z,97632.64
2023-12-11T07:39:23.846Z,97626.32
2023-12-11T07:41:53.174Z,97615.72
2023-12-11T07:44:22.926Z,97623.05
2023-12-11T07:46:51.926Z,97626.34
2023-12-11T07:49:20.604Z,97624.39
2023-12-11T07:51:56.351Z,97629.98
2023-12-11T07:54:25.454Z,97630.51
2023-12-11T07:56:54.080Z,97624.95
2023-12-11T07:59:35.542Z,97623.55
2023-12-11T08:02:18.846Z,97617.79
2023-12-11T08:04:56.339Z,97615.20
2023-12-11T08:07:26.802Z,97621.83
2023-12-11T08:09:55.557Z,97620.27
2023-12-11T08:12:24.031Z,97619.63
2023-12-11T08:14:52.690Z,97629.20
2023-12-11T08:17:26.731Z,97636.75
2023-12-11T08:19:56.088Z,97631.13
2023-12-11T08:22:28.644Z,97626.43
2023-12-11T08:24:58.306Z,97624.95
2023-12-11T08:27:29.769Z,97612.21
2023-12-11T08:30:01.539Z,97602.70
2023-12-11T08:32:31.374Z,97596.23
2023-12-11T08:35:05.530Z,97578.90
2023-12-11T08:37:35.242Z,97580.02
2023-12-11T08:40:07.540Z,97584.14
2023-12-11T08:42:45.593Z,97578.74
2023-12-11T08:45:15.850Z,97555.55
2023-12-11T08:47:45.188Z,97546.42
2023-12-11T08:50:14.158Z,97546.25
2023-12-11T08:52:44.891Z,97537.36
2023-12-11T08:55:13.771Z,97527.88
2023-12-11T08:57:46.283Z,97525.61
2023-12-11T09:00:15.485Z,97523.06
2023-12-11T09:02:44.144Z,97522.02
2023-12-11T09:05:14.710Z,97519.98
2023-12-11T09:07:47.579Z,97509.67
2023-12-11T09:10:16.446Z,97497.02
2023-12-11T09:12:47.041Z,97487.95
2023-12-11T09:15:15.634Z,97477.19
2023-12-11T09:17:45.848Z,97471.17
2023-12-11T09:20:17.773Z,97464.73
2023-12-11T09:22:58.800Z,97455.90
2023-12-11T09:25:35.349Z,97450.43
2023-12-11T09:28:11.015Z,97447.77
2023-12-11T09:30:42.196Z,97445.02
2023-12-11T09:33:17.534Z,97452.08
2023-12-11T09:36:05.717Z,97462.23
2023-12-11T09:39:15.324Z,97465.07
2023-12-11T09:41:53.733Z,97470.21
2023-12-11T09:44:27.328Z,97461.79
2023-12-11T09:47:35.572Z,97454.02
2023-12-11T09:50:17.739Z,97455.56
2023-12-11T09:53:07.826Z,97457.02
2023-12-11T09:56:02.065Z,97458.59
2023-12-11T09:58:37.032Z,97448.13
2023-12-11T10:01:09.525Z,97441.27
2023-12-11T10:03:38.474Z,97431.96
2023-12-11T10:06:10.917Z,97438.27
2023-12-11T10:08:54.106Z,97436.60
2023-12-11T10:11:26.275Z,97427.19
2023-12-11T10:13:55.603Z,97419.87
2023-12-11T10:16:30.025Z,97421.04
2023-12-11T10:19:03.353Z,97420.86
2023-12-11T10:21:41.290Z,97417.91
2023-12-11T10:24:20.404Z,97407.73
2023-12-11T10:26:57.544Z,97400.02
2023-12-11T10:29:32.074Z,97393.61
2023-12-11T10:32:05.664Z,97396.29
2023-12-11T10:34:41.989Z,97404.44
2023-12-11T10:37:15.464Z,97403.91
2023-12-11T10:39:54.683Z,97397.02
2023-12-11T10:42:24.419Z,97381.48
2023-12-11T10:44:57.064Z,97382.80
2023-12-11T10:50:20.136Z,97370.73
2023-12-11T10:52:50.697Z,97368.52
2023-12-11T10:55:22.163Z,97360.90
2023-12-11T10:57:53.149Z,97348.36
2023-12-11T11:00:25.263Z,97335.77
2023-12-11T11:02:58.925Z,97320.27
2023-12-11T11:05:30.400Z,97319.86
2023-12-11T11:08:02.119Z,97332.31
2023-12-11T11:10:43.331Z,97328.46
2023-12-11T11:13:22.644Z,97332.13
2023-12-11T11:15:57.344Z,97332.15
2023-12-11T11:18:26.058Z,97322.64
2023-12-11T11:21:15.062Z,97317.41
2023-12-11T11:23:47.276Z,97305.70
2023-12-11T11:26:36.929Z,97296.07
2023-12-11T11:29:08.379Z,97288.17
2023-12-11T11:31:58.632Z,97287.15
2023-12-11T11:34:47.519Z,97284.08
2023-12-11T11:37:22.317Z,97276.44
2023-12-11T11:40:07.289Z,97294.38
2023-12-11T11:42:37.222Z,97307.54
2023-12-11T11:45:28.105Z,97311.02
2023-12-11T11:47:56.512Z,97311.65
2023-12-11T11:50:27.349Z,97309.60
2023-12-11T11:53:03.808Z,97306.95
2023-12-11T11:55:36.372Z,97306.34
2023-12-11T11:58:21.589Z,97306.43
2023-12-11T12:01:05.105Z,97307.53
2023-12-11T12:03:51.123Z,97322.52
2023-12-11T12:06:22.627Z,97319.70
2023-12-11T12:08:53.908Z,97313.30
2023-12-11T12:11:25.263Z,97310.58
2023-12-11T12:13:55.291Z,97311.18
2023-12-11T12:16:30.387Z,97306.80
2023-12-11T12:19:00.006Z,97304.20
2023-12-11T12:21:28.997Z,97308.98
2023-12-11T12:24:05.144Z,97308.70
2023-12-11T12:26:37.021Z,97304.69
2023-12-11T12:29:11.137Z,97300.57
2023-12-11T12:31:43.124Z,97291.26
2023-12-11T12:34:17.895Z,97283.33
2023-12-11T12:36:54.645Z,97272.38
2023-12-11T12:39:37.503Z,97265.73
2023-12-11T12:42:15.581Z,97265.54
2023-12-11T12:44:44.186Z,97268.08
2023-12-11T12:47:13.641Z,97268.37
2023-12-11T12:49:47.112Z,97269.37
2023-12-11T12:52:27.015Z,97268.87
2023-12-11T12:54:57.512Z,97266.73
2023-12-11T12:57:25.731Z,97270.05
2023-12-11T13:00:03.969Z,97276.09
2023-12-11T13:02:34.877Z,97277.44
2023-12-11T13:05:07.031Z,97276.31
2023-12-11T13:07:36.014Z,97275.44
2023-12-11T13:10:12.471Z,97277.17
2023-12-11T13:12:42.828Z,97274.61
2023-12-11T13:15:11.894Z,97278.34
2023-12-11T13:17:45.216Z,97280.25
2023-12-11T13:20:16.118Z,97281.95
2023-12-11T13:22:45.609Z,97279.23
2023-12-11T13:25:24.228Z,97276.65
2023-12-11T13:27:52.414Z,97287.18
2023-12-11T13:30:26.822Z,97294.05
2023-12-11T13:32:55.477Z,97294.27
2023-12-11T13:35:47.442Z,97293.95
2023-12-11T13:38:16.901Z,97297.52
2023-12-11T13:40:47.335Z,97294.14
2023-12-11T13:43:17.929Z,97305.71
2023-12-11T13:46:08.759Z,97315.35
2023-12-11T13:48:49.647Z,97317.67
2023-12-11T13:51:18.874Z,97316.27
2023-12-11T13:54:01.302Z,97311.48
2023-12-11T13:56:36.029Z,97322.82
2023-12-11T13:59:18.284Z,97328.98
2023-12-11T14:01:59.193Z,97333.57
2023-12-11T14:04:48.132Z,97338.69
2023-12-11T14:07:23.860Z,97344.13
2023-12-11T14:10:11.270Z,97346.63
2023-12-11T14:13:00.846Z,97345.72
2023-12-11T14:15:54.518Z,97346.11
2023-12-11T14:18:28.149Z,97342.84
2023-12-11T14:21:21.861Z,97346.34
2023-12-11T14:23:56.659Z,97346.46
2023-12-11T14:26:29.384Z,97346.79
2023-12-11T14:29:13.577Z,97342.52
2023-12-11T14:31:55.072Z,97345.80
2023-12-11T14:34:32.992Z,97343.05
2023-12-11T14:37:02.612Z,97346.83
2023-12-11T14:39:43.490Z,97351.66
2023-12-11T14:42:20.918Z,97359.03
2023-12-11T14:44:55.616Z,97360.38
2023-12-11T14:47:35.289Z,97366.12
2023-12-11T14:50:18.944Z,97372.11
2023-12-11T14:52:47.580Z,97379.77
2023-12-11T14:55:25.035Z,97378.20
2023-12-11T14:57:55.017Z,97375.09
2023-12-11T15:00:27.011Z,97375.13
2023-12-11T15:02:55.605Z,97376.52
2023-12-11T15:05:27.930Z,97375.83
2023-12-11T15:07:58.215Z,97371.83
2023-12-11T15:10:27.364Z,97374.07
2023-12-11T15:13:02.399Z,97368.44
2023-12-11T15:15:32.279Z,97373.95
2023-12-11T15:18:01.646Z,97370.89
2023-12-11T15:20:32.495Z,97367.53
2023-12-11T15:23:06.962Z,97367.26
2023-12-11T15:25:36.319Z,97356.36
2023-12-11T15:28:09.550Z,97358.52
2023-12-11T15:30:39.018Z,97352.58
2023-12-11T15:33:12.725Z,97351.93
2023-12-11T15:35:41.455Z,97352.23
2023-12-11T15:38:10.806Z,97346.88
2023-12-11T15:40:40.086Z,97340.84
2023-12-11T15:43:08.961Z,97336.23
2023-12-11T15:45:37.410Z,97336.60
2023-12-11T15:48:08.752Z,97333.83
2023-12-11T15:50:52.066Z,97332.17
2023-12-11T15:53:24.766Z,97329.79
2023-12-11T15:55:53.201Z,97330.73
2023-12-11T15:58:22.403Z,97327.27
2023-12-11T16:00:54.256Z,97326.53
2023-12-11T16:03:23.341Z,97328.75
2023-12-11T16:05:54.027Z,97329.02
2023-12-11T16:08:22.570Z,97328.79
2023-12-11T16:10:51.284Z,97332.03
2023-12-11T16:13:22.888Z,97344.39
2023-12-11T16:15:51.957Z,97349.21
2023-12-11T16:18:20.407Z,97350.20
2023-12-11T16:20:52.102Z,97351.03
2023-12-11T16:23:21.163Z,97349.32
2023-12-11T16:25:56.518Z,97338.38
2023-12-11T16:28:31.653Z,97336.86
2023-12-11T16:31:00.698Z,97333.70
2023-12-11T16:33:31.028Z,97326.11
2023-12-11T16:35:59.783Z,97316.80
2023-12-11T16:38:33.733Z,97313.09
2023-12-11T16:41:02.135Z,97313.05
2023-12-11T16:43:32.961Z,97314.09
2023-12-11T16:46:02.120Z,97297.38
2023-12-11T16:48:31.122Z,97289.48
2023-12-11T16:50:59.952Z,97282.65
2023-12-11T16:53:28.551Z,97266.12
2023-12-11T16:55:58.842Z,97258.21
2023-12-11T16:58:27.424Z,97255.29
2023-12-11T17:00:55.593Z,97269.48
2023-12-11T17:03:23.866Z,97275.66
2023-12-11T17:05:53.553Z,97264.42
2023-12-11T17:08:22.351Z,97246.34
2023-12-11T17:10:50.589Z,97251.84
2023-12-11T17:13:20.399Z,97244.31
2023-12-11T17:15:51.180Z,97240.73
2023-12-11T17:18:21.446Z,97247.97
2023-12-11T17:20:49.923Z,97251.52
2023-12-11T17:23:18.923Z,97262.16
2023-12-11T17:25:47.324Z,97267.72
2023-12-11T17:28:17.024Z,97270.50
2023-12-11T17:30:47.542Z,97272.13
2023-12-11T17:33:15.699Z,97272.16
2023-12-11T17:35:43.863Z,97265.91
2023-12-11T17:38:14.421Z,97268.77
2023-12-11T17:40:43.841Z,97269.30
2023-12-11T17:43:12.915Z,97267.03
2023-12-11T17:45:44.953Z,97254.34
2023-12-11T17:48:13.777Z,97238.19
2023-12-11T17:50:42.218Z,97226.73
2023-12-11T17:53:12.902Z,97216.16
2023-12-11T17:55:44.402Z,97209.54
2023-12-11T17:58:13.956Z,97211.83
2023-12-11T18:00:42.341Z,97222.78
2023-12-11T18:03:10.755Z,97224.55
2023-12-11T18:05:40.206Z,97211.64
2023-12-11T18:08:12.595Z,97202.18
2023-12-11T18:10:40.924Z,97201.23
2023-12-11T18:13:11.359Z,97201.39
2023-12-11T18:15:39.561Z,97207.50
2023-12-11T18:18:08.613Z,97207.32
2023-12-11T18:20:36.742Z,97206.11
2023-12-11T18:23:08.871Z,97201.48
2023-12-11T18:25:37.178Z,97204.30
2023-12-11T18:28:05.409Z,97196.30
2023-12-11T18:30:33.723Z,97198.75
2023-12-11T18:33:01.952Z,97210.61
2023-12-11T18:35:30.212Z,97209.38
2023-12-11T18:37:59.117Z,97202.07
2023-12-11T18:40:29.574Z,97192.73
2023-12-11T18:43:00.405Z,97204.94
2023-12-11T18:45:28.836Z,97205.98
2023-12-11T18:47:58.962Z,97207.71
2023-12-11T18:50:27.251Z,97208.38
2023-12-11T18:52:57.760Z,97204.08
2023-12-11T18:55:31.064Z,97195.27
2023-12-11T18:57:59.684Z,97183.37
2023-12-11T19:00:28.893Z,97183.19
2023-12-11T19:02:57.660Z,97177.64
2023-12-11T19:05:26.598Z,97182.05
2023-12-11T19:07:56.954Z,97182.63
2023-12-11T19:10:26.474Z,97183.98
2023-12-11T19:12:57.282Z,97188.66
2023-12-11T19:15:26.275Z,97194.64
2023-12-11T19:17:57.531Z,97204.94
2023-12-11T19:20:25.836Z,97208.41
2023-12-11T19:22:53.965Z,97209.04
2023-12-11T19:25:22.252Z,97205.49
2023-12-11T19:27:50.636Z,97198.07
2023-12-11T19:30:18.826Z,97189.42
2023-12-11T19:32:47.124Z,97187.35
2023-12-11T19:35:16.326Z,97185.73
2023-12-11T19:37:44.603Z,97185.35
2023-12-11T19:40:13.284Z,97191.89
2023-12-11T19:42:48.434Z,97191.81
2023-12-11T19:45:18.284Z,97192.20
2023-12-11T19:47:49.905Z,97190.48
2023-12-11T19:50:18.269Z,97178.51
2023-12-11T19:52:51.218Z,97162.66
2023-12-11T19:55:20.526Z,97165.57
2023-12-11T19:57:51.331Z,97168.41
2023-12-11T20:00:19.888Z,97165.93
2023-12-11T20:02:48.305Z,97163.56
2023-12-11T20:05:17.089Z,97164.15
2023-12-11T20:07:45.924Z,97173.65
2023-12-11T20:10:16.444Z,97173.23
2023-12-11T20:12:46.081Z,97172.68
2023-12-11T20:15:14.406Z,97173.33
2023-12-11T20:17:42.844Z,97166.39
2023-12-11T20:20:11.801Z,97168.19
2023-12-11T20:22:40.722Z,97167.11
2023-12-11T20:25:10.791Z,97170.67
2023-12-11T20:27:39.114Z,97157.94
2023-12-11T20:30:11.399Z,97156.92
2023-12-11T20:32:40.583Z,97160.24
2023-12-11T20:35:09.446Z,97157.70
2023-12-11T20:37:38.999Z,97154.84
2023-12-11T20:40:08.377Z,97154.63
2023-12-11T20:42:39.885Z,97166.36
2023-12-11T20:45:09.043Z,97164.09
2023-12-11T20:47:39.114Z,97174.48
2023-12-11T20:50:13.766Z,97174.13
2023-12-11T20:52:42.407Z,97172.49
2023-12-11T20:55:12.792Z,97175.63
2023-12-11T20:57:42.507Z,97176.03
2023-12-11T21:00:12.575Z,97174.00
2023-12-11T21:02:42.563Z,97178.20
2023-12-11T21:05:11.156Z,97179.73
2023-12-11T21:07:42.606Z,97180.06
2023-12-11T21:10:11.226Z,97179.45
2023-12-11T21:12:39.661Z,97179.52
2023-12-11T21:15:10.105Z,97181.50
2023-12-11T21:17:41.699Z,97183.05
2023-12-11T21:20:10.929Z,97179.71
2023-12-11T21:22:39.241Z,97166.79
2023-12-11T21:25:08.216Z,97168.38
2023-12-11T21:27:36.514Z,97171.12
2023-12-11T21:30:08.368Z,97176.53
2023-12-11T21:32:36.626Z,97186.10
2023-12-11T21:35:05.341Z,97183.49
2023-12-11T21:37:34.127Z,97192.13
2023-12-11T21:40:02.490Z,97200.48
2023-12-11T21:42:31.297Z,97206.58
2023-12-11T21:45:02.514Z,97211.04
2023-12-11T21:47:31.052Z,97213.05
2023-12-11T21:50:00.967Z,97216.09
2023-12-11T21:52:29.437Z,97218.61
2023-12-11T21:54:58.766Z,97216.79
2023-12-11T21:57:27.789Z,97224.20
2023-12-11T21:59:56.022Z,97218.09
2023-12-11T22:02:26.014Z,97219.23
2023-12-11T22:04:54.339Z,97220.23
2023-12-11T22:07:22.934Z,97222.52
2023-12-11T22:09:51.263Z,97227.11
2023-12-11T22:12:19.757Z,97223.56
2023-12-11T22:14:48.201Z,97225.80
2023-12-11T22:17:16.570Z,97218.12
2023-12-11T22:19:44.800Z,97212.58
2023-12-11T22:22:13.333Z,97209.98
2023-12-11T22:24:41.753Z,97203.16
2023-12-11T22:27:10.117Z,97199.95
2023-12-11T22:29:39.005Z,97201.80
2023-12-11T22:32:07.488Z,97197.66
2023-12-11T22:34:39.142Z,97196.81
2023-12-11T22:37:07.878Z,97203.02
2023-12-11T22:39:36.383Z,97204.31
2023-12-11T22:42:05.986Z,97205.61
2023-12-11T22:44:34.893Z,97201.49
2023-12-11T22:47:03.272Z,97197.46
2023-12-11T22:49:32.631Z,97186.23
2023-12-11T22:52:01.613Z,97181.91
2023-12-11T22:54:30.033Z,97183.15
2023-12-11T22:56:59.049Z,97192.20
2023-12-11T22:59:27.582Z,97189.13
2023-12-11T23:01:55.836Z,97192.52
2023-12-11T23:04:24.213Z,97199.96
2023-12-11T23:06:52.556Z,97198.64
2023-12-11T23:09:20.622Z,97193.77
2023-12-11T23:11:48.888Z,97192.77
2023-12-11T23:14:17.022Z,97194.36
2023-12-11T23:16:46.639Z,97192.73
2023-12-11T23:19:19.957Z,97188.33
2023-12-11T23:21:49.668Z,97182.81
2023-12-11T23:24:18.878Z,97187.45
2023-12-11T23:26:47.126Z,97189.70
2023-12-11T23:29:15.320Z,97183.45
2023-12-11T23:31:43.508Z,97182.62
2023-12-11T23:34:12.056Z,97185.92
2023-12-11T23:36:40.362Z,97182.55
2023-12-11T23:39:08.971Z,97184.22
2023-12-11T23:41:37.966Z,97188.29
2023-12-11T23:44:06.361Z,97183.79
2023-12-11T23:46:34.674Z,97178.30
2023-12-11T23:49:03.300Z,97173.26
2023-12-11T23:51:31.851Z,97168.69
2023-12-11T23:54:00.840Z,97168.96
2023-12-11T23:56:29.033Z,97176.34
2023-12-11T23:58:57.462Z,97177.32
